createdAt,value
2022-10-30T03:59:19.932Z,0.00
2022-10-30T04:00:19.889Z,0.00
2022-10-30T04:01:20.037Z,0.00
2022-10-30T04:03:19.900Z,0.00
2022-10-30T04:04:19.893Z,0.00
2022-10-30T04:05:19.898Z,0.00
2022-10-30T04:06:19.900Z,0.00
2022-10-30T04:07:19.916Z,0.00
2022-10-30T04:08:19.894Z,0.00
2022-10-30T04:09:19.894Z,0.00
2022-10-30T04:10:23.719Z,0.00
2022-10-30T04:11:19.963Z,0.00
2022-10-30T04:12:19.895Z,0.00
2022-10-30T04:13:19.907Z,0.00
2022-10-30T04:14:19.910Z,0.00
2022-10-30T04:15:19.921Z,0.00
2022-10-30T04:16:19.898Z,0.00
2022-10-30T04:17:19.899Z,0.00
2022-10-30T04:18:19.909Z,0.00
2022-10-30T04:19:19.897Z,0.00
2022-10-30T04:20:18.203Z,0.00
2022-10-30T04:21:19.419Z,0.00
2022-10-30T04:22:18.184Z,0.00
2022-10-30T04:23:19.443Z,0.00
2022-10-30T04:24:18.185Z,0.00
2022-10-30T04:25:19.920Z,0.00
2022-10-30T04:26:18.191Z,0.00
2022-10-30T04:27:19.923Z,0.00
2022-10-30T04:28:18.178Z,0.00
2022-10-30T04:29:19.934Z,0.00
2022-10-30T04:30:18.159Z,0.00
2022-10-30T04:31:19.933Z,0.00
2022-10-30T04:32:18.156Z,0.00
2022-10-30T04:33:19.945Z,0.00
2022-10-30T04:34:19.929Z,0.00
2022-10-30T04:35:19.913Z,0.00
2022-10-30T04:36:19.923Z,0.00
2022-10-30T04:37:18.137Z,0.00
2022-10-30T04:38:19.931Z,0.00
2022-10-30T04:39:19.917Z,0.00
2022-10-30T04:40:18.134Z,0.00
2022-10-30T04:41:19.921Z,0.00
2022-10-30T04:42:19.912Z,0.00
2022-10-30T04:43:19.950Z,0.00
2022-10-30T04:44:18.108Z,0.00
2022-10-30T04:45:19.935Z,0.00
2022-10-30T04:46:19.923Z,0.00
2022-10-30T04:47:18.241Z,0.00
2022-10-30T04:48:19.941Z,0.00
2022-10-30T04:49:18.093Z,0.00
2022-10-30T04:50:19.931Z,0.00
2022-10-30T04:51:19.089Z,0.00
2022-10-30T04:52:19.927Z,0.00
2022-10-30T04:53:19.950Z,0.00
2022-10-30T04:54:19.944Z,0.00
2022-10-30T04:55:19.933Z,0.00
2022-10-30T04:56:19.942Z,0.00
2022-10-30T04:57:19.932Z,0.00
2022-10-30T04:58:19.948Z,0.00
2022-10-30T04:59:19.938Z,0.00
2022-10-30T05:00:19.935Z,0.00
2022-10-30T05:01:20.102Z,0.00
2022-10-30T05:02:20.131Z,0.00
2022-10-30T05:03:19.954Z,0.00
2022-10-30T05:04:19.949Z,0.00
2022-10-30T05:05:19.983Z,0.00
2022-10-30T05:06:18.039Z,0.00
2022-10-30T05:07:18.050Z,0.00
2022-10-30T05:08:19.457Z,0.00
2022-10-30T05:09:18.035Z,0.00
2022-10-30T05:10:18.039Z,0.00
2022-10-30T05:11:18.052Z,0.00
2022-10-30T05:12:18.044Z,0.00
2022-10-30T05:13:19.961Z,0.00
2022-10-30T05:14:19.952Z,0.00
2022-10-30T05:15:18.015Z,0.00
2022-10-30T05:16:18.011Z,0.00
2022-10-30T05:17:20.043Z,0.00
2022-10-30T05:18:18.010Z,0.00
2022-10-30T05:19:18.022Z,0.00
2022-10-30T05:20:19.956Z,0.00
2022-10-30T05:21:19.969Z,0.00
2022-10-30T05:22:19.465Z,0.00
2022-10-30T05:23:17.986Z,0.00
2022-10-30T05:24:19.963Z,0.00
2022-10-30T05:25:19.956Z,0.00
2022-10-30T05:26:19.959Z,0.00
2022-10-30T05:27:19.473Z,0.00
2022-10-30T05:28:18.966Z,0.00
2022-10-30T05:29:19.460Z,0.00
2022-10-30T05:30:19.468Z,0.00
2022-10-30T05:31:19.469Z,0.00
2022-10-30T05:32:19.501Z,0.00
2022-10-30T05:33:19.468Z,0.00
2022-10-30T05:34:19.481Z,0.00
2022-10-30T05:35:19.471Z,0.00
2022-10-30T05:36:19.466Z,0.00
2022-10-30T05:37:19.480Z,0.00
2022-10-30T05:38:18.977Z,0.00
2022-10-30T05:39:17.944Z,0.00
2022-10-30T05:40:17.929Z,0.00
2022-10-30T05:41:17.924Z,0.00
2022-10-30T05:42:17.935Z,0.00
2022-10-30T05:43:19.484Z,0.00
2022-10-30T05:44:28.918Z,0.00
2022-10-30T05:45:17.908Z,0.00
2022-10-30T05:46:19.491Z,0.00
2022-10-30T05:47:19.006Z,0.00
2022-10-30T05:48:19.491Z,0.00
2022-10-30T05:49:17.896Z,0.00
2022-10-30T05:50:17.904Z,0.00
2022-10-30T05:51:19.491Z,0.00
2022-10-30T05:52:17.887Z,0.00
2022-10-30T05:53:17.895Z,0.00
2022-10-30T05:54:19.496Z,4.00
2022-10-30T05:55:18.883Z,4.00
2022-10-30T05:56:19.494Z,4.00
2022-10-30T05:57:17.898Z,4.00
2022-10-30T05:58:19.493Z,4.00
2022-10-30T05:59:18.863Z,8.00
2022-10-30T06:00:19.506Z,4.00
2022-10-30T06:01:19.652Z,8.00
2022-10-30T06:02:17.900Z,8.00
2022-10-30T06:03:19.487Z,12.00
2022-10-30T06:04:17.849Z,12.00
2022-10-30T06:05:19.501Z,12.00
2022-10-30T06:06:19.513Z,16.00
2022-10-30T06:07:19.493Z,16.00
2022-10-30T06:08:19.487Z,20.00
2022-10-30T06:09:19.514Z,24.00
2022-10-30T06:10:19.509Z,28.00
2022-10-30T06:11:19.842Z,32.00
2022-10-30T06:12:19.494Z,32.00
2022-10-30T06:13:17.819Z,36.00
2022-10-30T06:14:19.506Z,44.00
2022-10-30T06:15:17.817Z,48.00
2022-10-30T06:16:19.591Z,56.00
2022-10-30T06:17:17.808Z,60.00
2022-10-30T06:18:17.807Z,68.00
2022-10-30T06:19:19.043Z,72.00
2022-10-30T06:20:19.513Z,80.00
2022-10-30T06:21:19.520Z,88.00
2022-10-30T06:22:17.805Z,92.00
2022-10-30T06:23:17.791Z,100.00
2022-10-30T06:24:17.793Z,108.00
2022-10-30T06:25:17.783Z,112.00
2022-10-30T06:26:19.510Z,120.00
2022-10-30T06:27:19.522Z,132.00
2022-10-30T06:28:19.514Z,136.00
2022-10-30T06:29:19.508Z,148.00
2022-10-30T06:30:19.545Z,160.00
2022-10-30T06:31:17.809Z,168.00
2022-10-30T06:32:19.523Z,180.00
2022-10-30T06:33:19.514Z,188.00
2022-10-30T06:34:19.540Z,200.00
2022-10-30T06:35:19.539Z,212.00
2022-10-30T06:36:19.513Z,220.00
2022-10-30T06:37:19.564Z,232.00
2022-10-30T06:38:19.529Z,244.00
2022-10-30T06:39:19.531Z,256.00
2022-10-30T06:40:19.530Z,268.00
2022-10-30T06:41:19.549Z,280.00
2022-10-30T06:42:19.525Z,292.00
2022-10-30T06:43:17.727Z,300.00
2022-10-30T06:44:17.770Z,312.00
2022-10-30T06:45:17.720Z,320.00
2022-10-30T06:46:19.545Z,328.00
2022-10-30T06:47:17.715Z,344.00
2022-10-30T06:48:17.710Z,352.00
2022-10-30T06:49:17.709Z,360.00
2022-10-30T06:50:17.700Z,372.00
2022-10-30T06:51:19.546Z,384.00
2022-10-30T06:52:19.542Z,392.00
2022-10-30T06:53:17.714Z,408.00
2022-10-30T06:54:17.711Z,420.00
2022-10-30T06:55:17.711Z,432.00
2022-10-30T06:56:17.694Z,444.00
2022-10-30T06:57:19.545Z,456.00
2022-10-30T06:58:19.538Z,468.00
2022-10-30T06:59:19.554Z,476.00
2022-10-30T07:00:19.535Z,488.00
2022-10-30T07:01:19.591Z,496.00
2022-10-30T07:02:19.587Z,508.00
2022-10-30T07:03:19.549Z,516.00
2022-10-30T07:04:18.672Z,524.00
2022-10-30T07:05:19.551Z,536.00
2022-10-30T07:06:19.551Z,548.00
2022-10-30T07:07:19.536Z,556.00
2022-10-30T07:08:19.549Z,564.00
2022-10-30T07:09:19.540Z,576.00
2022-10-30T07:10:19.571Z,580.00
2022-10-30T07:11:19.558Z,592.00
2022-10-30T07:12:19.556Z,600.00
2022-10-30T07:13:19.562Z,608.00
2022-10-30T07:14:19.544Z,620.00
2022-10-30T07:15:19.552Z,628.00
2022-10-30T07:16:19.578Z,640.00
2022-10-30T07:17:19.583Z,652.00
2022-10-30T07:18:19.547Z,664.00
2022-10-30T07:19:19.555Z,676.00
2022-10-30T07:20:19.568Z,684.00
2022-10-30T07:21:17.607Z,692.00
2022-10-30T07:22:17.620Z,704.00
2022-10-30T07:23:17.600Z,712.00
2022-10-30T07:24:19.569Z,724.00
2022-10-30T07:25:17.591Z,736.00
2022-10-30T07:26:17.606Z,748.00
2022-10-30T07:27:17.605Z,764.00
2022-10-30T07:28:19.569Z,780.00
2022-10-30T07:29:17.587Z,832.00
2022-10-30T07:30:19.605Z,892.00
2022-10-30T07:31:24.189Z,936.00
2022-10-30T07:32:19.561Z,1024.00
2022-10-30T07:33:19.076Z,1160.00
2022-10-30T07:34:18.560Z,1304.00
2022-10-30T07:35:19.067Z,1368.00
2022-10-30T07:36:19.080Z,1440.00
2022-10-30T07:37:19.071Z,1460.00
2022-10-30T07:38:19.075Z,1480.00
2022-10-30T07:39:19.075Z,1512.00
2022-10-30T07:40:19.075Z,1528.00
2022-10-30T07:41:19.085Z,1540.00
2022-10-30T07:42:17.556Z,1560.00
2022-10-30T07:43:19.078Z,1580.00
2022-10-30T07:44:19.077Z,1588.00
2022-10-30T07:45:20.421Z,1604.00
2022-10-30T07:46:17.526Z,1620.00
2022-10-30T07:47:17.529Z,1636.00
2022-10-30T07:48:17.526Z,1652.00
2022-10-30T07:49:19.089Z,1672.00
2022-10-30T07:50:18.520Z,1692.00
2022-10-30T07:51:19.082Z,1708.00
2022-10-30T07:52:19.092Z,1720.00
2022-10-30T07:53:18.503Z,1732.00
2022-10-30T07:54:19.092Z,1752.00
2022-10-30T07:55:17.510Z,1768.00
2022-10-30T07:56:17.508Z,1784.00
2022-10-30T07:57:17.502Z,1796.00
2022-10-30T07:58:17.519Z,1808.00
2022-10-30T07:59:17.494Z,1808.00
2022-10-30T08:00:19.101Z,1764.00
2022-10-30T08:01:19.264Z,1732.00
2022-10-30T08:02:17.668Z,1808.00
2022-10-30T08:03:19.107Z,1756.00
2022-10-30T08:04:19.088Z,1764.00
2022-10-30T08:05:19.093Z,1824.00
2022-10-30T08:06:20.122Z,1908.00
2022-10-30T08:07:19.110Z,1860.00
2022-10-30T08:08:19.091Z,1868.00
2022-10-30T08:09:19.093Z,1908.00
2022-10-30T08:10:19.105Z,1940.00
2022-10-30T08:11:19.098Z,1948.00
2022-10-30T08:12:19.114Z,1960.00
2022-10-30T08:13:19.099Z,1964.00
2022-10-30T08:14:19.109Z,1960.00
2022-10-30T08:15:19.122Z,1964.00
2022-10-30T08:16:19.114Z,1972.00
2022-10-30T08:17:17.451Z,1976.00
2022-10-30T08:18:17.451Z,1984.00
2022-10-30T08:19:17.458Z,2008.00
2022-10-30T08:20:19.113Z,2020.00
2022-10-30T08:21:19.115Z,2056.00
2022-10-30T08:22:17.441Z,2076.00
2022-10-30T08:23:17.440Z,2084.00
2022-10-30T08:24:17.448Z,2104.00
2022-10-30T08:25:19.145Z,2112.00
2022-10-30T08:26:19.119Z,2132.00
2022-10-30T08:27:17.447Z,2152.00
2022-10-30T08:28:17.431Z,2156.00
2022-10-30T08:29:17.451Z,2168.00
2022-10-30T08:30:19.153Z,2180.00
2022-10-30T08:31:19.129Z,2192.00
2022-10-30T08:32:19.110Z,2196.00
2022-10-30T08:33:19.124Z,2188.00
2022-10-30T08:34:19.134Z,2208.00
2022-10-30T08:35:20.228Z,2212.00
2022-10-30T08:36:19.124Z,2208.00
2022-10-30T08:37:19.117Z,2212.00
2022-10-30T08:38:19.126Z,2216.00
2022-10-30T08:39:19.142Z,2232.00
2022-10-30T08:40:20.122Z,2244.00
2022-10-30T08:41:19.120Z,2260.00
2022-10-30T08:42:19.119Z,2280.00
2022-10-30T08:43:19.132Z,2292.00
2022-10-30T08:44:18.637Z,2324.00
2022-10-30T08:45:17.415Z,2340.00
2022-10-30T08:46:17.406Z,2352.00
2022-10-30T08:47:17.394Z,2364.00
2022-10-30T08:48:17.400Z,2364.00
2022-10-30T08:49:19.140Z,2376.00
2022-10-30T08:50:17.479Z,2388.00
2022-10-30T08:51:17.389Z,2408.00
2022-10-30T08:52:19.144Z,2412.00
2022-10-30T08:53:17.388Z,2428.00
2022-10-30T08:54:17.396Z,2432.00
2022-10-30T08:55:19.159Z,2428.00
2022-10-30T08:56:17.381Z,2420.00
2022-10-30T08:57:17.419Z,2420.00
2022-10-30T08:58:17.416Z,2408.00
2022-10-30T08:59:21.231Z,2316.00
2022-10-30T09:00:17.373Z,2284.00
2022-10-30T09:01:19.260Z,2148.00
2022-10-30T09:02:17.545Z,2200.00
2022-10-30T09:03:17.406Z,2296.00
2022-10-30T09:04:19.157Z,2312.00
2022-10-30T09:05:17.367Z,2404.00
2022-10-30T09:06:19.181Z,2288.00
2022-10-30T09:07:17.368Z,2064.00
2022-10-30T09:08:19.143Z,2388.00
2022-10-30T09:09:17.375Z,2464.00
2022-10-30T09:10:19.155Z,2428.00
2022-10-30T09:11:17.360Z,2388.00
2022-10-30T09:12:19.163Z,2348.00
2022-10-30T09:13:19.155Z,2512.00
2022-10-30T09:14:19.177Z,2532.00
2022-10-30T09:15:19.164Z,2564.00
2022-10-30T09:16:19.172Z,2552.00
2022-10-30T09:17:19.175Z,2536.00
2022-10-30T09:18:19.158Z,2524.00
2022-10-30T09:19:19.224Z,2408.00
2022-10-30T09:20:19.160Z,2468.00
2022-10-30T09:21:19.191Z,2448.00
2022-10-30T09:22:18.354Z,2192.00
2022-10-30T09:23:19.174Z,2216.00
2022-10-30T09:24:19.171Z,2088.00
2022-10-30T09:25:18.359Z,2204.00
2022-10-30T09:26:20.842Z,2164.00
2022-10-30T09:27:17.347Z,2204.00
2022-10-30T09:28:17.362Z,2272.00
2022-10-30T09:29:19.186Z,2280.00
2022-10-30T09:30:17.345Z,2432.00
2022-10-30T09:31:17.351Z,2580.00
2022-10-30T09:32:17.379Z,2628.00
2022-10-30T09:33:19.234Z,2688.00
2022-10-30T09:34:17.532Z,2608.00
2022-10-30T09:35:19.203Z,2536.00
2022-10-30T09:36:22.075Z,2752.00
2022-10-30T09:37:19.238Z,2792.00
2022-10-30T09:38:17.364Z,2752.00
2022-10-30T09:39:19.201Z,2680.00
2022-10-30T09:40:19.238Z,2748.00
2022-10-30T09:41:19.219Z,2828.00
2022-10-30T09:42:19.201Z,2916.00
2022-10-30T09:43:19.196Z,2940.00
2022-10-30T09:44:19.209Z,2904.00
2022-10-30T09:45:34.479Z,2888.00
2022-10-30T09:46:19.233Z,2792.00
2022-10-30T09:47:23.191Z,2604.00
2022-10-30T09:48:19.190Z,2796.00
2022-10-30T09:49:19.251Z,2772.00
2022-10-30T09:50:19.240Z,2868.00
2022-10-30T09:51:19.199Z,2836.00
2022-10-30T09:52:19.237Z,2932.00
2022-10-30T09:53:19.251Z,2936.00
2022-10-30T09:54:17.359Z,2992.00
2022-10-30T09:55:18.728Z,2728.00
2022-10-30T09:56:19.211Z,2696.00
2022-10-30T09:57:17.353Z,3004.00
2022-10-30T09:58:17.369Z,2944.00
2022-10-30T09:59:17.373Z,2300.00
2022-10-30T10:00:17.364Z,2864.00
2022-10-30T10:01:19.493Z,2896.00
2022-10-30T10:02:17.593Z,3224.00
2022-10-30T10:13:29.711Z,2864.00
2022-10-30T10:14:28.092Z,2980.00
2022-10-30T10:15:29.686Z,2876.00
2022-10-30T10:16:29.733Z,3180.00
2022-10-30T10:17:28.097Z,3360.00
2022-10-30T10:18:29.763Z,3456.00
2022-10-30T10:19:29.699Z,3420.00
2022-10-30T10:20:29.727Z,3540.00
2022-10-30T10:21:29.669Z,3464.00
2022-10-30T10:22:29.697Z,3168.00
2022-10-30T10:23:28.079Z,3312.00
2022-10-30T10:24:29.708Z,3196.00
2022-10-30T10:25:28.081Z,2976.00
2022-10-30T10:26:29.695Z,2784.00
2022-10-30T10:27:28.086Z,2888.00
2022-10-30T10:28:29.790Z,3008.00
2022-10-30T10:29:29.708Z,2784.00
2022-10-30T10:30:29.077Z,2436.00
2022-10-30T10:31:28.074Z,2424.00
2022-10-30T10:32:28.073Z,2520.00
2022-10-30T10:33:29.715Z,2416.00
2022-10-30T10:34:29.689Z,2560.00
2022-10-30T10:35:29.702Z,2648.00
2022-10-30T10:36:29.690Z,2552.00
2022-10-30T10:37:29.690Z,2684.00
2022-10-30T10:38:29.690Z,2620.00
2022-10-30T10:39:29.706Z,2576.00
2022-10-30T10:40:29.711Z,2628.00
2022-10-30T10:41:28.084Z,2688.00
2022-10-30T10:42:29.691Z,2816.00
2022-10-30T10:43:29.707Z,2928.00
2022-10-30T10:44:29.698Z,2912.00
2022-10-30T10:45:29.736Z,2892.00
2022-10-30T10:46:29.708Z,2992.00
2022-10-30T10:47:29.700Z,3060.00
2022-10-30T10:48:29.704Z,2960.00
2022-10-30T10:49:29.701Z,3156.00
2022-10-30T10:50:29.718Z,3028.00
2022-10-30T10:51:29.747Z,2720.00
2022-10-30T10:52:29.705Z,2796.00
2022-10-30T10:53:29.718Z,2812.00
2022-10-30T10:54:29.711Z,2972.00
2022-10-30T10:55:29.716Z,2888.00
2022-10-30T10:56:29.716Z,2848.00
2022-10-30T10:57:29.724Z,2864.00
2022-10-30T10:58:29.746Z,2648.00
2022-10-30T10:59:29.715Z,2644.00
2022-10-30T11:00:29.714Z,2904.00
2022-10-30T11:01:28.304Z,3124.00
2022-10-30T11:02:28.186Z,3104.00
2022-10-30T11:03:29.732Z,3112.00
2022-10-30T11:04:28.112Z,3128.00
2022-10-30T11:05:29.111Z,3092.00
2022-10-30T11:06:29.718Z,3140.00
2022-10-30T11:07:29.722Z,3244.00
2022-10-30T11:08:29.730Z,3524.00
2022-10-30T11:09:29.736Z,3444.00
2022-10-30T11:10:29.731Z,3272.00
2022-10-30T11:11:29.735Z,3260.00
2022-10-30T11:12:33.659Z,3236.00
2022-10-30T11:13:29.748Z,3336.00
2022-10-30T11:14:29.744Z,3396.00
2022-10-30T11:15:29.733Z,3512.00
2022-10-30T11:16:29.728Z,3600.00
2022-10-30T11:17:29.740Z,3852.00
2022-10-30T11:18:29.745Z,4084.00
2022-10-30T11:19:29.113Z,3852.00
2022-10-30T11:20:28.109Z,3608.00
2022-10-30T11:21:29.738Z,4108.00
2022-10-30T11:22:29.117Z,4468.00
2022-10-30T11:23:29.752Z,4444.00
2022-10-30T11:24:28.112Z,4368.00
2022-10-30T11:25:31.146Z,4204.00
2022-10-30T11:26:29.753Z,4596.00
2022-10-30T11:27:28.114Z,4680.00
2022-10-30T11:28:28.117Z,4404.00
2022-10-30T11:29:28.115Z,4404.00
2022-10-30T11:30:28.117Z,4460.00
2022-10-30T11:31:29.256Z,4136.00
2022-10-30T11:32:28.119Z,3988.00
2022-10-30T11:33:28.127Z,4096.00
2022-10-30T11:34:29.765Z,4332.00
2022-10-30T11:35:28.120Z,4392.00
2022-10-30T11:36:28.122Z,4428.00
2022-10-30T11:37:28.122Z,4548.00
2022-10-30T11:38:29.764Z,4856.00
2022-10-30T11:39:28.123Z,4440.00
2022-10-30T11:40:29.769Z,4024.00
2022-10-30T11:41:29.126Z,4008.00
2022-10-30T11:42:28.124Z,4280.00
2022-10-30T11:43:28.127Z,4284.00
2022-10-30T11:44:29.764Z,4336.00
2022-10-30T11:45:29.775Z,4480.00
2022-10-30T11:46:28.131Z,5028.00
2022-10-30T11:47:29.840Z,5808.00
2022-10-30T11:48:28.129Z,5440.00
2022-10-30T11:49:29.771Z,7100.00
2022-10-30T11:50:29.782Z,7128.00
2022-10-30T11:51:29.869Z,6968.00
2022-10-30T11:52:29.780Z,7248.00
2022-10-30T11:53:28.146Z,6692.00
2022-10-30T11:54:29.767Z,7040.00
2022-10-30T11:55:29.285Z,7640.00
2022-10-30T11:56:28.143Z,7136.00
2022-10-30T11:57:29.776Z,6768.00
2022-10-30T11:58:29.794Z,7088.00
2022-10-30T11:59:28.141Z,7264.00
2022-10-30T12:00:28.155Z,6372.00
2022-10-30T12:01:28.174Z,7480.00
2022-10-30T12:02:28.330Z,7876.00
2022-10-30T12:03:29.795Z,8156.00
2022-10-30T12:04:28.153Z,8044.00
2022-10-30T12:05:28.176Z,8372.00
2022-10-30T12:06:28.156Z,8788.00
2022-10-30T12:07:28.161Z,9236.00
2022-10-30T12:08:29.809Z,9204.00
2022-10-30T12:09:29.783Z,9148.00
2022-10-30T12:10:29.794Z,10192.00
2022-10-30T12:11:29.796Z,9892.00
2022-10-30T12:12:29.789Z,9324.00
2022-10-30T12:13:29.814Z,8508.00
2022-10-30T12:14:29.804Z,9560.00
2022-10-30T12:15:29.792Z,10720.00
2022-10-30T12:16:29.796Z,10884.00
2022-10-30T12:17:29.806Z,11048.00
2022-10-30T12:18:29.808Z,10244.00
2022-10-30T12:19:29.819Z,10680.00
2022-10-30T12:20:29.796Z,10548.00
2022-10-30T12:21:29.815Z,10928.00
2022-10-30T12:22:29.187Z,11284.00
2022-10-30T12:23:29.815Z,10464.00
2022-10-30T12:24:29.803Z,10604.00
2022-10-30T12:25:29.803Z,10476.00
2022-10-30T12:26:29.803Z,11108.00
2022-10-30T12:27:29.804Z,11240.00
2022-10-30T12:28:29.822Z,11068.00
2022-10-30T12:29:48.036Z,11640.00
2022-10-30T12:30:29.808Z,12532.00
2022-10-30T12:31:29.816Z,13252.00
2022-10-30T12:32:28.253Z,14456.00
2022-10-30T12:33:28.228Z,28992.00
2022-10-30T12:34:29.326Z,36320.00
2022-10-30T12:35:28.235Z,27584.00
2022-10-30T12:36:28.239Z,24640.00
2022-10-30T12:37:28.253Z,21856.00
2022-10-30T12:38:28.247Z,16172.00
2022-10-30T12:39:29.835Z,13176.00
2022-10-30T12:40:29.819Z,13452.00
2022-10-30T12:41:29.817Z,15800.00
2022-10-30T12:42:29.820Z,19296.00
2022-10-30T12:43:29.853Z,20000.00
2022-10-30T12:44:29.841Z,19456.00
2022-10-30T12:45:29.826Z,21184.00
2022-10-30T12:46:29.831Z,19040.00
2022-10-30T12:47:29.826Z,18112.00
2022-10-30T12:48:29.830Z,16496.00
2022-10-30T12:49:29.861Z,18784.00
2022-10-30T12:50:29.828Z,17632.00
2022-10-30T12:51:29.846Z,19360.00
2022-10-30T12:52:29.877Z,20096.00
2022-10-30T12:53:28.307Z,20256.00
2022-10-30T12:54:29.833Z,18944.00
2022-10-30T12:55:28.309Z,18144.00
2022-10-30T12:56:29.854Z,21376.00
2022-10-30T12:57:29.350Z,19040.00
2022-10-30T12:58:28.322Z,20704.00
2022-10-30T12:59:28.328Z,22848.00
2022-10-30T13:00:28.325Z,23136.00
2022-10-30T13:01:28.441Z,19840.00
2022-10-30T13:02:29.395Z,19104.00
2022-10-30T13:03:28.343Z,16004.00
2022-10-30T13:04:28.338Z,15364.00
2022-10-30T13:05:29.359Z,14580.00
2022-10-30T13:06:28.352Z,14944.00
2022-10-30T13:07:28.352Z,16168.00
2022-10-30T13:08:28.347Z,16632.00
2022-10-30T13:09:28.359Z,15808.00
2022-10-30T13:10:29.866Z,13896.00
2022-10-30T13:11:28.367Z,15328.00
2022-10-30T13:12:28.365Z,16072.00
2022-10-30T13:13:29.365Z,13680.00
2022-10-30T13:14:29.872Z,13772.00
2022-10-30T13:15:30.871Z,13088.00
2022-10-30T13:16:29.368Z,12908.00
2022-10-30T13:17:28.383Z,11040.00
2022-10-30T13:18:30.361Z,13700.00
2022-10-30T13:19:30.373Z,14104.00
2022-10-30T13:20:28.382Z,13788.00
2022-10-30T13:21:30.423Z,13168.00
2022-10-30T13:22:29.384Z,13300.00
2022-10-30T13:23:30.373Z,13568.00
2022-10-30T13:24:29.885Z,13792.00
2022-10-30T13:25:30.379Z,14360.00
2022-10-30T13:26:28.408Z,14908.00
2022-10-30T13:27:30.377Z,12544.00
2022-10-30T13:28:30.387Z,11988.00
2022-10-30T13:29:30.372Z,11160.00
2022-10-30T13:30:30.381Z,9524.00
2022-10-30T13:31:30.378Z,9060.00
2022-10-30T13:32:30.387Z,9348.00
2022-10-30T13:33:30.379Z,9340.00
2022-10-30T13:34:30.398Z,9088.00
2022-10-30T13:35:30.380Z,9664.00
2022-10-30T13:36:30.459Z,9748.00
2022-10-30T13:37:28.460Z,10688.00
2022-10-30T13:38:30.387Z,10480.00
2022-10-30T13:39:30.398Z,12020.00
2022-10-30T13:40:28.429Z,11728.00
2022-10-30T13:41:30.399Z,11756.00
2022-10-30T13:42:28.436Z,9788.00
2022-10-30T13:43:30.403Z,9936.00
2022-10-30T13:44:30.395Z,9316.00
2022-10-30T13:45:30.389Z,8712.00
2022-10-30T13:46:30.464Z,9620.00
2022-10-30T13:47:30.407Z,9528.00
2022-10-30T13:48:30.394Z,9152.00
2022-10-30T13:49:30.419Z,8996.00
2022-10-30T13:50:30.395Z,8840.00
2022-10-30T13:51:30.398Z,8676.00
2022-10-30T13:52:29.454Z,9504.00
2022-10-30T13:53:30.398Z,11264.00
2022-10-30T13:54:30.427Z,11204.00
2022-10-30T13:55:30.485Z,10208.00
2022-10-30T13:56:30.403Z,8584.00
2022-10-30T13:57:28.463Z,8544.00
2022-10-30T13:58:30.405Z,8096.00
2022-10-30T13:59:30.415Z,8304.00
2022-10-30T14:00:30.408Z,7996.00
2022-10-30T14:01:30.520Z,8252.00
2022-10-30T14:02:28.635Z,7284.00
2022-10-30T14:03:28.472Z,6928.00
2022-10-30T14:04:28.492Z,5944.00
2022-10-30T14:05:30.425Z,6476.00
2022-10-30T14:06:28.467Z,7172.00
2022-10-30T14:07:30.443Z,6800.00
2022-10-30T14:08:28.517Z,6356.00
2022-10-30T14:09:28.490Z,5828.00
2022-10-30T14:10:28.469Z,5340.00
2022-10-30T14:11:28.476Z,4704.00
2022-10-30T14:12:30.435Z,4428.00
2022-10-30T14:13:28.491Z,4436.00
2022-10-30T14:14:28.481Z,4404.00
2022-10-30T14:15:30.427Z,4248.00
2022-10-30T14:16:30.422Z,4028.00
2022-10-30T14:17:30.422Z,3956.00
2022-10-30T14:18:29.936Z,3852.00
2022-10-30T14:19:30.463Z,3828.00
2022-10-30T14:20:30.440Z,3712.00
2022-10-30T14:21:30.436Z,3472.00
2022-10-30T14:22:30.466Z,3252.00
2022-10-30T14:23:30.444Z,3176.00
2022-10-30T14:24:30.509Z,3128.00
2022-10-30T14:25:30.432Z,2992.00
2022-10-30T14:26:30.435Z,2880.00
2022-10-30T14:27:30.432Z,2744.00
2022-10-30T14:28:30.445Z,2652.00
2022-10-30T14:29:30.460Z,2576.00
2022-10-30T14:30:30.437Z,2492.00
2022-10-30T14:31:30.457Z,2416.00
2022-10-30T14:32:29.488Z,2376.00
2022-10-30T14:33:28.485Z,2336.00
2022-10-30T14:34:29.953Z,2300.00
2022-10-30T14:35:30.453Z,2240.00
2022-10-30T14:36:28.485Z,2164.00
2022-10-30T14:37:28.488Z,2108.00
2022-10-30T14:38:28.492Z,2056.00
2022-10-30T14:39:28.485Z,2000.00
2022-10-30T14:40:28.490Z,1952.00
2022-10-30T14:41:30.465Z,1908.00
2022-10-30T14:42:28.486Z,1856.00
2022-10-30T14:43:28.487Z,1804.00
2022-10-30T14:44:28.484Z,1756.00
2022-10-30T14:45:30.471Z,1720.00
2022-10-30T14:46:29.496Z,1684.00
2022-10-30T14:47:28.485Z,1660.00
2022-10-30T14:48:29.504Z,1640.00
2022-10-30T14:49:28.485Z,1608.00
2022-10-30T14:50:30.469Z,1572.00
2022-10-30T14:51:29.978Z,1544.00
2022-10-30T14:52:29.488Z,1524.00
2022-10-30T14:53:30.472Z,1508.00
2022-10-30T14:54:28.484Z,1500.00
2022-10-30T14:55:30.476Z,1492.00
2022-10-30T14:56:28.490Z,1488.00
2022-10-30T14:57:30.463Z,1480.00
2022-10-30T14:58:28.481Z,1476.00
2022-10-30T14:59:30.465Z,1472.00
2022-10-30T15:00:28.484Z,1464.00
2022-10-30T15:01:30.150Z,1460.00
2022-10-30T15:02:29.748Z,1452.00
2022-10-30T15:03:29.984Z,1448.00
2022-10-30T15:04:29.491Z,1448.00
2022-10-30T15:05:28.534Z,1444.00
2022-10-30T15:06:28.475Z,1440.00
2022-10-30T15:07:29.986Z,1436.00
2022-10-30T15:08:28.476Z,1428.00
2022-10-30T15:09:29.478Z,1416.00
2022-10-30T15:10:28.474Z,1408.00
2022-10-30T15:11:29.988Z,1392.00
2022-10-30T15:13:28.473Z,1336.00
2022-10-30T15:14:40.658Z,1304.00
2022-10-30T15:15:30.006Z,1268.00
2022-10-30T15:16:28.469Z,1228.00
2022-10-30T15:17:29.991Z,1192.00
2022-10-30T15:18:30.945Z,1148.00
2022-10-30T15:19:29.997Z,1112.00
2022-10-30T15:20:29.985Z,1072.00
2022-10-30T15:21:29.986Z,1028.00
2022-10-30T15:22:29.987Z,988.00
2022-10-30T15:23:30.001Z,944.00
2022-10-30T15:24:32.568Z,908.00
2022-10-30T15:25:30.001Z,868.00
2022-10-30T15:26:30.012Z,824.00
2022-10-30T15:27:29.992Z,780.00
2022-10-30T15:28:30.035Z,740.00
2022-10-30T15:29:29.996Z,700.00
2022-10-30T15:30:28.453Z,660.00
2022-10-30T15:31:28.476Z,616.00
2022-10-30T15:32:28.448Z,576.00
2022-10-30T15:33:29.517Z,532.00
2022-10-30T15:34:28.451Z,488.00
2022-10-30T15:35:28.465Z,448.00
2022-10-30T15:36:29.515Z,400.00
2022-10-30T15:37:28.442Z,360.00
2022-10-30T15:38:28.441Z,328.00
2022-10-30T15:39:28.449Z,292.00
2022-10-30T15:40:30.018Z,264.00
2022-10-30T15:41:28.438Z,240.00
2022-10-30T15:42:28.437Z,224.00
2022-10-30T15:43:30.022Z,208.00
2022-10-30T15:44:29.519Z,192.00
2022-10-30T15:45:30.022Z,180.00
2022-10-30T15:46:28.434Z,168.00
2022-10-30T15:47:28.428Z,156.00
2022-10-30T15:48:28.430Z,144.00
2022-10-30T15:49:30.033Z,136.00
2022-10-30T15:50:30.030Z,128.00
2022-10-30T15:51:30.018Z,120.00
2022-10-30T15:52:30.035Z,108.00
2022-10-30T15:53:30.040Z,100.00
2022-10-30T15:54:30.034Z,96.00
2022-10-30T15:55:28.422Z,88.00
2022-10-30T15:56:30.023Z,80.00
2022-10-30T15:58:01.626Z,72.00
2022-10-30T15:58:30.035Z,68.00
2022-10-30T15:59:30.042Z,60.00
2022-10-30T16:00:30.128Z,56.00
2022-10-30T16:12:40.692Z,16.00
2022-10-30T16:13:40.065Z,16.00
2022-10-30T16:14:39.057Z,12.00
2022-10-30T16:15:39.053Z,12.00
2022-10-30T16:16:40.673Z,8.00
2022-10-30T16:17:40.050Z,8.00
2022-10-30T16:18:39.042Z,8.00
2022-10-30T16:19:40.679Z,8.00
2022-10-30T16:20:40.031Z,4.00
2022-10-30T16:21:39.035Z,4.00
2022-10-30T16:22:39.043Z,4.00
2022-10-30T16:23:40.187Z,4.00
2022-10-30T16:24:40.666Z,0.00
2022-10-30T16:25:44.444Z,4.00
2022-10-30T16:26:40.683Z,4.00
2022-10-30T16:27:40.682Z,0.00
2022-10-30T16:28:40.680Z,0.00
2022-10-30T16:29:40.709Z,0.00
2022-10-30T16:30:40.745Z,0.00
2022-10-30T16:31:40.708Z,0.00
2022-10-30T16:32:40.676Z,0.00
2022-10-30T16:33:40.691Z,0.00
2022-10-30T16:34:39.017Z,0.00
2022-10-30T16:35:40.677Z,0.00
2022-10-30T16:36:40.680Z,0.00
2022-10-30T16:37:40.700Z,0.00
2022-10-30T16:38:40.699Z,0.00
2022-10-30T16:39:40.685Z,0.00
2022-10-30T16:40:40.682Z,0.00
2022-10-30T16:41:40.698Z,0.00
2022-10-30T16:42:40.722Z,0.00
2022-10-30T16:43:41.691Z,0.00
2022-10-30T16:44:39.807Z,0.00